createdAt,value
2023-03-28T00:01:02.660Z,8.70
2023-03-28T00:03:29.489Z,7.30
2023-03-28T00:05:57.653Z,6.60
2023-03-28T00:08:24.223Z,8.75
2023-03-28T00:10:51.116Z,7.78
2023-03-28T00:13:19.818Z,8.68
2023-03-28T00:15:46.692Z,9.23
2023-03-28T00:18:13.165Z,14.45
2023-03-28T00:20:43.397Z,5.93
2023-03-28T00:23:11.877Z,9.55
2023-03-28T00:25:43.320Z,8.48
2023-03-28T00:28:10.023Z,8.32
2023-03-28T00:30:36.487Z,11.80
2023-03-28T00:33:05.158Z,12.25
2023-03-28T00:35:32.300Z,12.73
2023-03-28T00:37:59.112Z,6.72
2023-03-28T00:40:26.442Z,9.90
2023-03-28T00:42:53.751Z,11.75
2023-03-28T00:45:21.484Z,6.13
2023-03-28T00:47:57.688Z,12.32
2023-03-28T00:50:40.864Z,11.55
2023-03-28T00:53:10.045Z,5.63
2023-03-28T00:56:11.618Z,8.27
2023-03-28T00:58:42.236Z,6.82
2023-03-28T01:01:12.269Z,8.10
2023-03-28T01:03:41.357Z,9.25
2023-03-28T01:06:08.886Z,10.02
2023-03-28T01:08:39.980Z,8.60
2023-03-28T01:11:06.831Z,10.77
2023-03-28T01:13:37.776Z,8.85
2023-03-28T01:16:05.263Z,11.55
2023-03-28T01:18:34.562Z,7.15
2023-03-28T01:21:31.623Z,9.23
2023-03-28T01:24:16.772Z,12.27
2023-03-28T01:26:52.674Z,13.35
2023-03-28T01:30:02.318Z,6.80
2023-03-28T01:32:59.242Z,11.27
2023-03-28T01:35:37.479Z,12.25
2023-03-28T01:38:19.207Z,7.90
2023-03-28T01:40:57.012Z,10.15
2023-03-28T01:43:45.899Z,10.13
2023-03-28T01:46:32.336Z,9.70
2023-03-28T01:49:07.829Z,6.30
2023-03-28T01:51:50.404Z,10.73
2023-03-28T01:54:26.224Z,11.43
2023-03-28T01:57:14.662Z,10.95
2023-03-28T01:59:53.724Z,7.38
2023-03-28T02:02:40.486Z,11.60
2023-03-28T02:05:11.665Z,8.55
2023-03-28T02:07:44.057Z,9.00
2023-03-28T02:10:14.129Z,10.48
2023-03-28T02:12:48.243Z,8.52
2023-03-28T02:15:19.533Z,11.52
2023-03-28T02:17:53.406Z,17.25
2023-03-28T02:20:24.749Z,10.50
2023-03-28T02:22:56.659Z,11.85
2023-03-28T02:25:23.250Z,14.05
2023-03-28T02:27:53.943Z,9.77
2023-03-28T02:30:21.362Z,7.82
2023-03-28T02:32:50.344Z,9.15
2023-03-28T02:35:23.618Z,14.25
2023-03-28T02:38:00.507Z,13.77
2023-03-28T02:40:39.065Z,10.82
2023-03-28T02:43:37.830Z,12.10
2023-03-28T02:46:09.340Z,8.57
2023-03-28T02:48:35.795Z,8.30
2023-03-28T02:51:22.575Z,8.07
2023-03-28T02:54:11.261Z,10.55
2023-03-28T02:56:52.933Z,13.25
2023-03-28T02:59:28.362Z,8.82
2023-03-28T03:01:54.833Z,7.20
2023-03-28T03:04:21.202Z,9.18
2023-03-28T03:06:48.307Z,8.27
2023-03-28T03:09:17.278Z,9.90
2023-03-28T03:11:43.643Z,10.75
2023-03-28T03:14:10.287Z,13.05
2023-03-28T03:16:38.503Z,10.85
2023-03-28T03:19:05.529Z,8.88
2023-03-28T03:21:31.933Z,10.85
2023-03-28T03:23:58.319Z,9.57
2023-03-28T03:26:24.797Z,12.88
2023-03-28T03:28:51.406Z,9.27
2023-03-28T03:31:19.411Z,7.03
2023-03-28T03:33:46.008Z,12.18
2023-03-28T03:36:17.185Z,8.77
2023-03-28T03:38:43.566Z,11.48
2023-03-28T03:41:09.977Z,11.68
2023-03-28T03:43:36.384Z,8.88
2023-03-28T03:46:03.217Z,10.40
2023-03-28T03:48:30.166Z,10.60
2023-03-28T03:50:56.594Z,10.65
2023-03-28T03:53:22.944Z,12.52
2023-03-28T03:55:49.346Z,9.90
2023-03-28T03:58:15.684Z,10.13
2023-03-28T04:00:44.605Z,9.00
2023-03-28T04:03:25.068Z,8.82
2023-03-28T04:05:52.841Z,16.67
2023-03-28T04:08:19.240Z,10.38
2023-03-28T04:10:47.405Z,11.38
2023-03-28T04:13:13.934Z,7.50
2023-03-28T04:15:40.367Z,8.32
2023-03-28T04:18:09.052Z,13.82
2023-03-28T04:20:36.683Z,16.90
2023-03-28T04:23:05.599Z,10.13
2023-03-28T04:25:32.078Z,9.63
2023-03-28T04:28:01.714Z,9.35
2023-03-28T04:30:28.199Z,12.43
2023-03-28T04:32:54.688Z,15.38
2023-03-28T04:35:21.260Z,10.10
2023-03-28T04:37:49.198Z,13.70
2023-03-28T04:40:17.678Z,12.23
2023-03-28T04:42:44.300Z,14.75
2023-03-28T04:45:11.006Z,13.38
2023-03-28T04:47:39.762Z,15.68
2023-03-28T04:50:08.648Z,13.98
2023-03-28T04:52:36.118Z,15.00
2023-03-28T04:55:02.668Z,18.52
2023-03-28T04:57:29.061Z,16.05
2023-03-28T04:59:56.045Z,21.35
2023-03-28T05:02:22.582Z,13.00
2023-03-28T05:04:49.006Z,11.52
2023-03-28T05:07:15.418Z,15.15
2023-03-28T05:09:42.037Z,13.43
2023-03-28T05:12:08.411Z,15.10
2023-03-28T05:14:34.837Z,10.48
2023-03-28T05:17:01.209Z,13.82
2023-03-28T05:19:27.583Z,11.40
2023-03-28T05:21:54.031Z,12.50
2023-03-28T05:24:20.711Z,10.27
2023-03-28T05:26:47.216Z,11.23
2023-03-28T05:29:13.577Z,16.15
2023-03-28T05:31:39.956Z,10.90
2023-03-28T05:34:06.526Z,12.10
2023-03-28T05:36:32.900Z,18.25
2023-03-28T05:38:59.288Z,11.45
2023-03-28T05:41:25.815Z,9.88
2023-03-28T05:43:52.182Z,11.10
2023-03-28T05:46:18.639Z,13.18
2023-03-28T05:48:49.381Z,9.82
2023-03-28T05:51:16.977Z,10.38
2023-03-28T05:53:43.459Z,9.00
2023-03-28T05:56:10.037Z,10.82
2023-03-28T05:58:36.412Z,9.20
2023-03-28T06:01:02.934Z,14.60
2023-03-28T06:03:31.533Z,12.18
2023-03-28T06:05:58.011Z,12.30
2023-03-28T06:08:24.380Z,13.80
2023-03-28T06:10:50.796Z,10.10
2023-03-28T06:13:17.206Z,11.75
2023-03-28T06:15:43.603Z,13.40
2023-03-28T06:18:10.316Z,9.05
2023-03-28T06:20:36.710Z,9.00
2023-03-28T06:23:03.957Z,10.50
2023-03-28T06:25:30.442Z,11.90
2023-03-28T06:27:57.775Z,11.32
2023-03-28T06:30:24.184Z,11.75
2023-03-28T06:32:50.820Z,14.93
2023-03-28T06:35:17.239Z,8.77
2023-03-28T06:37:43.607Z,12.20
2023-03-28T06:40:10.601Z,9.48
2023-03-28T06:42:37.093Z,12.73
2023-03-28T06:45:04.168Z,8.63
2023-03-28T06:47:30.828Z,11.88
2023-03-28T06:49:57.520Z,10.15
2023-03-28T06:52:23.898Z,13.80
2023-03-28T06:54:50.228Z,15.23
2023-03-28T06:57:16.936Z,16.48
2023-03-28T06:59:43.470Z,16.48
2023-03-28T07:02:11.512Z,15.73
2023-03-28T07:04:37.937Z,16.83
2023-03-28T07:07:04.422Z,13.77
2023-03-28T07:09:31.263Z,13.77
2023-03-28T07:11:57.660Z,16.85
2023-03-28T07:14:24.083Z,17.73
2023-03-28T07:16:50.524Z,14.02
2023-03-28T07:19:17.023Z,18.75
2023-03-28T07:21:43.652Z,18.55
2023-03-28T07:24:10.176Z,16.58
2023-03-28T07:26:36.613Z,9.80
2023-03-28T07:29:03.427Z,15.40
2023-03-28T07:31:29.809Z,12.13
2023-03-28T07:33:58.109Z,15.57
2023-03-28T07:36:27.023Z,15.65
2023-03-28T07:38:53.394Z,13.23
2023-03-28T07:41:19.919Z,13.50
2023-03-28T07:43:46.341Z,13.85
2023-03-28T07:46:14.940Z,16.90
2023-03-28T07:48:42.707Z,13.05
2023-03-28T07:51:10.719Z,13.75
2023-03-28T07:53:38.037Z,13.85
2023-03-28T07:56:05.646Z,17.45
2023-03-28T07:58:31.999Z,11.30
2023-03-28T08:01:04.288Z,10.48
2023-03-28T08:03:30.750Z,14.50
2023-03-28T08:06:02.697Z,15.07
2023-03-28T08:08:30.787Z,15.02
2023-03-28T08:10:57.338Z,11.55
2023-03-28T08:13:24.410Z,12.48
2023-03-28T08:15:54.902Z,12.18
2023-03-28T08:18:22.160Z,9.60
2023-03-28T08:20:48.734Z,14.27
2023-03-28T08:23:15.490Z,14.98
2023-03-28T08:25:42.387Z,14.57
2023-03-28T08:28:09.726Z,16.95
2023-03-28T08:30:36.359Z,17.98
2023-03-28T08:33:04.564Z,12.38
2023-03-28T08:35:32.399Z,12.38
2023-03-28T08:37:59.389Z,14.38
2023-03-28T08:40:28.752Z,12.20
2023-03-28T08:43:32.461Z,12.18
2023-03-28T08:45:59.952Z,11.18
2023-03-28T08:48:34.168Z,16.52
2023-03-28T08:51:06.628Z,11.67
2023-03-28T08:53:42.147Z,12.32
2023-03-28T08:56:08.627Z,10.15
2023-03-28T08:59:06.226Z,12.18
2023-03-28T09:01:33.284Z,11.20
2023-03-28T09:04:01.009Z,10.88
2023-03-28T09:06:36.942Z,12.10
2023-03-28T09:09:21.198Z,10.15
2023-03-28T09:11:58.239Z,12.50
2023-03-28T09:14:40.941Z,12.55
2023-03-28T09:17:23.620Z,14.57
2023-03-28T09:20:12.243Z,11.95
2023-03-28T09:23:07.732Z,13.73
2023-03-28T09:25:48.765Z,6.68
2023-03-28T09:28:40.079Z,10.07
2023-03-28T09:31:11.502Z,8.55
2023-03-28T09:33:43.016Z,10.70
2023-03-28T09:36:16.133Z,8.15
2023-03-28T09:38:56.787Z,11.48
2023-03-28T09:41:37.436Z,15.73
2023-03-28T09:44:06.418Z,8.15
2023-03-28T09:46:44.561Z,9.60
2023-03-28T09:49:18.020Z,10.05
2023-03-28T09:51:45.141Z,12.07
2023-03-28T09:54:12.839Z,10.02
2023-03-28T09:56:43.173Z,5.70
2023-03-28T09:59:27.004Z,9.73
2023-03-28T10:01:57.372Z,5.68
2023-03-28T10:04:26.994Z,10.80
2023-03-28T10:06:55.173Z,8.75
2023-03-28T10:09:27.238Z,8.80
2023-03-28T10:11:57.332Z,7.72
2023-03-28T10:14:37.668Z,8.35
2023-03-28T10:17:17.712Z,9.45
2023-03-28T10:19:46.858Z,5.93
2023-03-28T10:22:20.737Z,4.60
2023-03-28T10:24:48.115Z,5.63
2023-03-28T10:27:32.918Z,6.38
2023-03-28T10:30:12.271Z,2.80
2023-03-28T10:32:38.670Z,3.40
2023-03-28T10:35:28.012Z,5.35
2023-03-28T10:37:55.231Z,5.72
2023-03-28T10:40:21.660Z,5.32
2023-03-28T10:42:51.439Z,10.68
2023-03-28T10:45:39.439Z,8.13
2023-03-28T10:48:29.249Z,5.85
2023-03-28T10:50:58.542Z,6.13
2023-03-28T10:53:32.129Z,3.30
2023-03-28T10:56:19.929Z,6.03
2023-03-28T10:59:05.190Z,5.78
2023-03-28T11:01:54.927Z,7.32
2023-03-28T11:04:48.628Z,9.05
2023-03-28T11:07:30.781Z,8.02
2023-03-28T11:10:19.102Z,4.32
2023-03-28T11:12:55.631Z,5.43
2023-03-28T11:15:26.039Z,7.25
2023-03-28T11:18:18.209Z,4.78
2023-03-28T11:20:54.153Z,5.20
2023-03-28T11:23:39.540Z,5.95
2023-03-28T11:26:31.524Z,7.03
2023-03-28T11:29:10.206Z,7.85
2023-03-28T11:31:42.868Z,5.45
2023-03-28T11:34:28.064Z,6.20
2023-03-28T11:37:03.824Z,7.70
2023-03-28T11:39:42.581Z,6.47
2023-03-28T11:42:23.686Z,4.18
2023-03-28T11:44:59.955Z,7.47
2023-03-28T11:47:34.894Z,3.00
2023-03-28T11:52:38.155Z,4.88
2023-03-28T11:55:20.779Z,4.68
2023-03-28T11:57:57.615Z,3.88
2023-03-28T12:00:42.503Z,5.03
2023-03-28T12:03:19.587Z,4.88
2023-03-28T12:06:00.006Z,5.90
2023-03-28T12:08:49.872Z,4.10
2023-03-28T12:14:12.186Z,3.58
2023-03-28T12:16:47.152Z,5.57
2023-03-28T12:19:18.336Z,7.47
2023-03-28T12:21:49.834Z,6.57
2023-03-28T12:24:24.935Z,4.50
2023-03-28T12:32:32.713Z,8.75
2023-03-28T12:35:21.433Z,3.55
2023-03-28T12:38:02.785Z,5.43
2023-03-28T12:40:50.274Z,2.75
2023-03-28T12:43:21.491Z,3.60
2023-03-28T12:45:57.350Z,3.08
2023-03-28T12:49:16.471Z,3.58
2023-03-28T12:51:48.110Z,3.67
2023-03-28T12:54:14.380Z,4.13
2023-03-28T12:56:41.299Z,3.15
2023-03-28T12:59:38.752Z,3.00
2023-03-28T13:02:14.324Z,6.80
2023-03-28T13:05:09.292Z,4.68
2023-03-28T13:08:27.118Z,6.63
2023-03-28T13:10:59.462Z,4.38
2023-03-28T13:13:35.698Z,3.17
2023-03-28T13:16:26.549Z,3.30
2023-03-28T13:19:16.452Z,6.03
2023-03-28T13:22:00.260Z,2.63
2023-03-28T13:24:36.183Z,4.85
2023-03-28T13:27:15.827Z,5.45
2023-03-28T13:29:51.584Z,3.47
2023-03-28T13:32:23.129Z,4.90
2023-03-28T13:34:54.253Z,6.05
2023-03-28T13:37:23.679Z,4.32
2023-03-28T13:40:00.056Z,4.72
2023-03-28T13:42:34.303Z,5.20
2023-03-28T13:45:23.292Z,3.92
2023-03-28T13:47:52.991Z,5.10
2023-03-28T13:50:28.948Z,6.95
2023-03-28T13:52:55.323Z,4.68
2023-03-28T13:55:26.434Z,5.22
2023-03-28T13:57:53.283Z,7.32
2023-03-28T14:00:25.839Z,5.47
2023-03-28T14:02:54.218Z,6.20
2023-03-28T14:05:22.522Z,3.40
2023-03-28T14:07:51.366Z,3.28
2023-03-28T14:10:27.683Z,3.70
2023-03-28T14:12:55.298Z,5.00
2023-03-28T14:15:29.639Z,4.15
2023-03-28T14:17:58.823Z,4.75
2023-03-28T14:20:26.366Z,7.05
2023-03-28T14:22:59.960Z,3.38
2023-03-28T14:25:28.328Z,3.38
2023-03-28T14:27:56.648Z,5.82
2023-03-28T14:30:24.917Z,5.43
2023-03-28T14:33:01.523Z,4.75
2023-03-28T14:35:30.314Z,5.50
2023-03-28T14:37:59.055Z,4.97
2023-03-28T14:40:25.607Z,5.75
2023-03-28T14:43:00.033Z,4.60
2023-03-28T14:45:28.483Z,5.25
2023-03-28T14:47:56.595Z,5.45
2023-03-28T14:50:29.373Z,4.35
2023-03-28T14:53:01.114Z,4.63
2023-03-28T14:55:28.730Z,6.03
2023-03-28T14:57:56.317Z,6.90
2023-03-28T15:00:29.571Z,4.47
2023-03-28T15:02:56.797Z,5.40
2023-03-28T15:05:23.530Z,8.95
2023-03-28T15:08:03.895Z,7.85
2023-03-28T15:10:31.011Z,4.15
2023-03-28T15:13:13.521Z,6.15
2023-03-28T15:15:46.071Z,5.10
2023-03-28T15:18:16.437Z,4.75
2023-03-28T15:20:45.905Z,5.03
2023-03-28T15:23:19.724Z,5.80
2023-03-28T15:25:46.971Z,7.00
2023-03-28T15:28:17.521Z,5.55
2023-03-28T15:30:46.521Z,4.38
2023-03-28T15:33:19.848Z,7.88
2023-03-28T15:35:46.914Z,4.97
2023-03-28T15:38:13.365Z,6.53
2023-03-28T15:40:42.090Z,5.30
2023-03-28T15:43:34.552Z,5.28
2023-03-28T15:46:02.942Z,5.47
2023-03-28T15:48:34.693Z,10.32
2023-03-28T15:51:15.278Z,6.68
2023-03-28T15:53:42.903Z,5.28
2023-03-28T15:56:20.256Z,7.35
2023-03-28T15:58:46.951Z,5.20
2023-03-28T16:01:24.348Z,4.15
2023-03-28T16:04:10.597Z,3.97
2023-03-28T16:06:42.498Z,7.68
2023-03-28T16:09:38.292Z,8.32
2023-03-28T16:12:06.091Z,4.85
2023-03-28T16:14:32.441Z,4.80
2023-03-28T16:16:58.918Z,3.83
2023-03-28T16:19:27.470Z,5.68
2023-03-28T16:21:54.290Z,4.18
2023-03-28T16:24:21.372Z,5.45
2023-03-28T16:26:48.337Z,3.55
2023-03-28T16:29:14.966Z,4.63
2023-03-28T16:31:41.587Z,4.43
2023-03-28T16:34:09.990Z,3.65
2023-03-28T16:36:37.706Z,7.70
2023-03-28T16:39:05.272Z,5.13
2023-03-28T16:41:32.193Z,6.22
2023-03-28T16:43:58.594Z,5.00
2023-03-28T16:46:25.160Z,5.18
2023-03-28T16:48:52.201Z,6.13
2023-03-28T16:51:18.662Z,4.40
2023-03-28T16:53:45.015Z,6.50
2023-03-28T16:56:15.351Z,5.03
2023-03-28T16:58:42.066Z,3.85
2023-03-28T17:01:11.736Z,5.00
2023-03-28T17:03:38.400Z,6.45
2023-03-28T17:06:08.149Z,4.55
2023-03-28T17:08:35.405Z,6.32
2023-03-28T17:11:06.341Z,3.83
2023-03-28T17:13:33.279Z,5.80
2023-03-28T17:15:59.892Z,6.07
2023-03-28T17:18:26.779Z,7.57
2023-03-28T17:21:05.242Z,5.57
2023-03-28T17:23:32.932Z,4.60
2023-03-28T17:26:00.681Z,6.38
2023-03-28T17:28:28.260Z,4.90
2023-03-28T17:30:55.371Z,6.80
2023-03-28T17:33:22.411Z,7.78
2023-03-28T17:35:49.480Z,3.67
2023-03-28T17:38:15.917Z,5.05
2023-03-28T17:40:46.771Z,9.63
2023-03-28T17:43:15.501Z,4.75
2023-03-28T17:45:42.043Z,6.47
2023-03-28T17:48:08.459Z,6.05
2023-03-28T17:50:34.932Z,8.10
2023-03-28T17:53:01.331Z,7.07
2023-03-28T17:55:27.739Z,7.55
2023-03-28T17:57:54.312Z,7.53
2023-03-28T18:00:21.121Z,5.80
2023-03-28T18:02:50.703Z,7.05
2023-03-28T18:05:18.032Z,4.68
2023-03-28T18:07:44.550Z,7.40
2023-03-28T18:10:11.404Z,5.57
2023-03-28T18:12:37.831Z,7.57
2023-03-28T18:15:04.658Z,4.50
2023-03-28T18:17:31.165Z,5.20
2023-03-28T18:19:58.831Z,7.75
2023-03-28T18:22:25.485Z,5.25
2023-03-28T18:24:51.858Z,6.80
2023-03-28T18:27:18.301Z,6.38
2023-03-28T18:29:44.726Z,6.15
2023-03-28T18:32:11.577Z,9.00
2023-03-28T18:34:39.469Z,5.45
2023-03-28T18:37:06.506Z,5.45
2023-03-28T18:39:32.905Z,5.53
2023-03-28T18:41:59.565Z,5.75
2023-03-28T18:44:26.099Z,5.60
2023-03-28T18:46:55.268Z,5.82
2023-03-28T18:49:22.608Z,7.80
2023-03-28T18:51:49.421Z,5.68
2023-03-28T18:54:16.094Z,6.38
2023-03-28T18:56:42.501Z,7.80
2023-03-28T18:59:09.052Z,9.80
2023-03-28T19:01:35.792Z,7.47
2023-03-28T19:04:02.304Z,5.60
2023-03-28T19:06:28.771Z,5.50
2023-03-28T19:08:55.200Z,7.15
2023-03-28T19:11:22.496Z,5.30
2023-03-28T19:13:50.321Z,5.03
2023-03-28T19:16:19.163Z,5.88
2023-03-28T19:18:47.191Z,7.65
2023-03-28T19:21:14.048Z,6.07
2023-03-28T19:23:40.792Z,6.03
2023-03-28T19:26:08.798Z,4.50
2023-03-28T19:28:35.916Z,5.55
2023-03-28T19:31:05.876Z,3.20
2023-03-28T19:33:32.419Z,7.00
2023-03-28T19:35:58.979Z,7.78
2023-03-28T19:38:26.447Z,7.38
2023-03-28T19:41:00.444Z,7.05
2023-03-28T19:43:28.208Z,6.60
2023-03-28T19:46:00.094Z,5.13
2023-03-28T19:48:27.558Z,5.05
2023-03-28T19:50:53.920Z,8.60
2023-03-28T19:53:20.266Z,5.68
2023-03-28T19:55:58.726Z,8.50
2023-03-28T19:58:26.763Z,6.10
2023-03-28T20:00:53.163Z,5.82
2023-03-28T20:03:19.534Z,7.85
2023-03-28T20:05:47.448Z,5.85
2023-03-28T20:08:15.884Z,5.60
2023-03-28T20:10:45.022Z,6.38
2023-03-28T20:13:11.449Z,4.50
2023-03-28T20:15:42.020Z,7.20
2023-03-28T20:18:15.548Z,4.95
2023-03-28T20:20:42.675Z,6.78
2023-03-28T20:23:09.602Z,5.50
2023-03-28T20:25:36.067Z,6.45
2023-03-28T20:28:04.288Z,4.72
2023-03-28T20:30:31.996Z,5.85
2023-03-28T20:32:59.189Z,5.68
2023-03-28T20:35:27.215Z,5.28
2023-03-28T20:37:53.944Z,7.18
2023-03-28T20:40:25.008Z,6.40
2023-03-28T20:42:52.503Z,7.55
2023-03-28T20:45:22.671Z,6.97
2023-03-28T20:47:55.939Z,7.22
2023-03-28T20:50:33.988Z,8.43
2023-03-28T20:53:01.957Z,7.82
2023-03-28T20:55:32.030Z,7.30
2023-03-28T20:57:58.608Z,6.47
2023-03-28T21:00:29.947Z,7.93
2023-03-28T21:02:56.402Z,9.35
2023-03-28T21:05:24.857Z,7.00
2023-03-28T21:07:52.838Z,8.43
2023-03-28T21:10:20.628Z,7.38
2023-03-28T21:12:50.799Z,6.10
2023-03-28T21:15:17.424Z,6.57
2023-03-28T21:17:43.861Z,5.70
2023-03-28T21:20:10.720Z,6.88
2023-03-28T21:22:41.172Z,5.78
2023-03-28T21:25:08.062Z,6.20
2023-03-28T21:27:36.697Z,5.30
2023-03-28T21:30:07.604Z,4.20
2023-03-28T21:32:35.811Z,5.82
2023-03-28T21:35:03.936Z,5.53
2023-03-28T21:37:30.943Z,5.05
2023-03-28T21:39:57.378Z,9.40
2023-03-28T21:42:24.149Z,7.70
2023-03-28T21:44:51.013Z,5.93
2023-03-28T21:47:17.418Z,5.97
2023-03-28T21:49:45.913Z,6.72
2023-03-28T21:52:12.870Z,5.97
2023-03-28T21:54:39.257Z,7.28
2023-03-28T21:57:05.724Z,5.75
2023-03-28T21:59:32.112Z,8.60
2023-03-28T22:01:58.733Z,8.20
2023-03-28T22:04:25.116Z,6.53
2023-03-28T22:06:51.452Z,7.03
2023-03-28T22:09:19.468Z,6.88
2023-03-28T22:11:45.987Z,7.03
2023-03-28T22:14:12.725Z,7.38
2023-03-28T22:16:39.690Z,6.82
2023-03-28T22:19:08.468Z,7.47
2023-03-28T22:21:34.933Z,8.50
2023-03-28T22:24:06.553Z,10.77
2023-03-28T22:26:33.101Z,9.73
2023-03-28T22:28:59.769Z,10.02
2023-03-28T22:31:26.359Z,8.20
2023-03-28T22:33:53.676Z,7.82
2023-03-28T22:36:20.686Z,7.53
2023-03-28T22:38:47.269Z,7.25
2023-03-28T22:41:13.667Z,9.85
2023-03-28T22:43:44.014Z,7.35
2023-03-28T22:46:12.690Z,9.00
2023-03-28T22:48:39.349Z,6.55
2023-03-28T22:51:11.527Z,7.85
2023-03-28T22:53:39.494Z,7.68
2023-03-28T22:56:06.520Z,6.30
2023-03-28T22:58:33.805Z,6.60
2023-03-28T23:01:00.520Z,10.63
2023-03-28T23:03:27.510Z,6.45
2023-03-28T23:05:54.940Z,5.35
2023-03-28T23:08:21.870Z,5.85
2023-03-28T23:10:48.379Z,7.88
2023-03-28T23:13:14.766Z,7.55
2023-03-28T23:15:41.131Z,7.32
2023-03-28T23:18:08.432Z,9.25
2023-03-28T23:20:35.663Z,7.38
2023-03-28T23:23:02.084Z,5.95
2023-03-28T23:25:28.541Z,8.68
2023-03-28T23:27:54.893Z,6.82
2023-03-28T23:30:21.254Z,5.07
2023-03-28T23:32:47.667Z,5.78
2023-03-28T23:35:14.104Z,5.05
2023-03-28T23:37:40.528Z,6.57
2023-03-28T23:40:13.943Z,5.68
2023-03-28T23:42:43.619Z,6.75
2023-03-28T23:45:11.463Z,7.57
2023-03-28T23:47:38.064Z,4.88
2023-03-28T23:50:06.542Z,8.20
2023-03-28T23:52:33.264Z,5.50
2023-03-28T23:54:59.802Z,6.03
2023-03-28T23:57:28.470Z,6.70
2023-03-28T23:59:56.460Z,7.35
